sensor_id;sensor_type;location;lat;lon;timestamp;temperature;humidity
23801;DHT22;12081;48.614;10.226;2022-12-16T00:00:50;-1.50;99.90
23801;DHT22;12081;48.614;10.226;2022-12-16T00:03:34;-1.50;99.90
23801;DHT22;12081;48.614;10.226;2022-12-16T00:06:20;-1.50;99.90
23801;DHT22;12081;48.614;10.226;2022-12-16T00:09:04;-1.50;99.90
23801;DHT22;12081;48.614;10.226;2022-12-16T00:11:48;-1.50;99.90
23801;DHT22;12081;48.614;10.226;2022-12-16T00:14:32;-1.60;99.90
23801;DHT22;12081;48.614;10.226;2022-12-16T00:17:16;-1.60;99.90
23801;DHT22;12081;48.614;10.226;2022-12-16T00:20:01;-1.60;99.90
23801;DHT22;12081;48.614;10.226;2022-12-16T00:22:46;-1.70;99.90
23801;DHT22;12081;48.614;10.226;2022-12-16T00:25:30;-1.70;99.90
23801;DHT22;12081;48.614;10.226;2022-12-16T00:28:16;-1.70;99.90
23801;DHT22;12081;48.614;10.226;2022-12-16T00:31:00;-1.80;99.90
23801;DHT22;12081;48.614;10.226;2022-12-16T00:33:44;-1.80;99.90
23801;DHT22;12081;48.614;10.226;2022-12-16T00:36:28;-1.80;99.90
23801;DHT22;12081;48.614;10.226;2022-12-16T00:39:12;-1.90;99.90
23801;DHT22;12081;48.614;10.226;2022-12-16T00:41:57;-1.90;99.90
23801;DHT22;12081;48.614;10.226;2022-12-16T00:44:41;-2.00;99.90
23801;DHT22;12081;48.614;10.226;2022-12-16T00:47:25;-2.00;99.90
23801;DHT22;12081;48.614;10.226;2022-12-16T00:50:09;-2.10;99.90
23801;DHT22;12081;48.614;10.226;2022-12-16T00:52:54;-2.10;99.90
23801;DHT22;12081;48.614;10.226;2022-12-16T00:55:38;-2.10;99.90
23801;DHT22;12081;48.614;10.226;2022-12-16T00:58:22;-2.10;99.90
23801;DHT22;12081;48.614;10.226;2022-12-16T01:01:07;-2.10;99.90
23801;DHT22;12081;48.614;10.226;2022-12-16T01:03:51;-2.10;99.90
23801;DHT22;12081;48.614;10.226;2022-12-16T01:06:38;-2.10;99.90
23801;DHT22;12081;48.614;10.226;2022-12-16T01:09:22;-1.00;99.90
23801;DHT22;12081;48.614;10.226;2022-12-16T01:12:06;-2.20;99.90
23801;DHT22;12081;48.614;10.226;2022-12-16T01:14:51;-2.20;99.90
23801;DHT22;12081;48.614;10.226;2022-12-16T01:17:36;-2.20;99.90
23801;DHT22;12081;48.614;10.226;2022-12-16T01:20:20;-2.20;99.90
23801;DHT22;12081;48.614;10.226;2022-12-16T01:23:04;-2.30;99.90
23801;DHT22;12081;48.614;10.226;2022-12-16T01:25:51;-2.20;99.90
23801;DHT22;12081;48.614;10.226;2022-12-16T01:28:36;-2.30;99.90
23801;DHT22;12081;48.614;10.226;2022-12-16T01:31:20;-2.30;99.90
23801;DHT22;12081;48.614;10.226;2022-12-16T01:34:04;-2.30;99.90
23801;DHT22;12081;48.614;10.226;2022-12-16T01:36:49;-1.00;99.90
23801;DHT22;12081;48.614;10.226;2022-12-16T01:39:33;-2.20;99.90
23801;DHT22;12081;48.614;10.226;2022-12-16T01:42:19;-2.30;99.90
23801;DHT22;12081;48.614;10.226;2022-12-16T01:51:32;-2.30;99.90
23801;DHT22;12081;48.614;10.226;2022-12-16T01:57:05;-2.30;99.90
23801;DHT22;12081;48.614;10.226;2022-12-16T01:59:52;-2.30;99.90
23801;DHT22;12081;48.614;10.226;2022-12-16T02:02:40;-2.20;99.90
23801;DHT22;12081;48.614;10.226;2022-12-16T02:05:27;-2.30;99.90
23801;DHT22;12081;48.614;10.226;2022-12-16T02:08:14;-2.30;99.90
23801;DHT22;12081;48.614;10.226;2022-12-16T02:17:17;-2.30;99.90
23801;DHT22;12081;48.614;10.226;2022-12-16T02:23:51;-2.30;99.90
23801;DHT22;12081;48.614;10.226;2022-12-16T02:30:00;-2.30;99.90
23801;DHT22;12081;48.614;10.226;2022-12-16T02:33:11;-2.30;99.90
23801;DHT22;12081;48.614;10.226;2022-12-16T02:36:24;-2.40;99.90
23801;DHT22;12081;48.614;10.226;2022-12-16T02:39:20;-2.40;99.90
23801;DHT22;12081;48.614;10.226;2022-12-16T02:45:15;-2.40;99.90
23801;DHT22;12081;48.614;10.226;2022-12-16T02:48:00;-2.40;99.90
23801;DHT22;12081;48.614;10.226;2022-12-16T02:50:50;-2.40;99.90
23801;DHT22;12081;48.614;10.226;2022-12-16T03:02:49;-2.40;99.90
23801;DHT22;12081;48.614;10.226;2022-12-16T03:05:39;-0.70;99.90
23801;DHT22;12081;48.614;10.226;2022-12-16T03:08:31;-1.10;99.90
23801;DHT22;12081;48.614;10.226;2022-12-16T03:11:17;-1.20;99.90
23801;DHT22;12081;48.614;10.226;2022-12-16T03:14:02;-1.00;99.90
23801;DHT22;12081;48.614;10.226;2022-12-16T03:16:50;-1.10;99.90
23801;DHT22;12081;48.614;10.226;2022-12-16T03:19:37;-1.40;99.90
23801;DHT22;12081;48.614;10.226;2022-12-16T03:22:26;-1.40;99.90
23801;DHT22;12081;48.614;10.226;2022-12-16T03:25:13;-1.00;99.90
23801;DHT22;12081;48.614;10.226;2022-12-16T03:30:52;-2.50;99.90
23801;DHT22;12081;48.614;10.226;2022-12-16T03:33:42;-2.40;99.90
23801;DHT22;12081;48.614;10.226;2022-12-16T03:36:32;-1.00;99.90
23801;DHT22;12081;48.614;10.226;2022-12-16T03:39:19;-1.10;99.90
23801;DHT22;12081;48.614;10.226;2022-12-16T03:42:06;-0.90;99.90
23801;DHT22;12081;48.614;10.226;2022-12-16T03:44:51;-1.30;99.90
23801;DHT22;12081;48.614;10.226;2022-12-16T03:47:36;-1.40;99.90
23801;DHT22;12081;48.614;10.226;2022-12-16T03:50:24;-0.70;99.90
23801;DHT22;12081;48.614;10.226;2022-12-16T03:53:09;-1.20;99.90
23801;DHT22;12081;48.614;10.226;2022-12-16T03:55:53;-1.00;99.90
23801;DHT22;12081;48.614;10.226;2022-12-16T03:58:38;-0.80;99.90
23801;DHT22;12081;48.614;10.226;2022-12-16T04:01:24;-1.20;99.90
23801;DHT22;12081;48.614;10.226;2022-12-16T04:04:08;-1.10;99.90
23801;DHT22;12081;48.614;10.226;2022-12-16T04:06:53;-1.00;99.90
23801;DHT22;12081;48.614;10.226;2022-12-16T04:09:56;-1.50;99.90
23801;DHT22;12081;48.614;10.226;2022-12-16T04:12:40;-1.30;99.90
23801;DHT22;12081;48.614;10.226;2022-12-16T04:15:43;-2.10;99.90
23801;DHT22;12081;48.614;10.226;2022-12-16T04:18:47;-1.60;99.90
23801;DHT22;12081;48.614;10.226;2022-12-16T04:21:50;-1.00;99.90
23801;DHT22;12081;48.614;10.226;2022-12-16T04:24:53;-1.30;99.90
23801;DHT22;12081;48.614;10.226;2022-12-16T04:27:37;-1.00;99.90
23801;DHT22;12081;48.614;10.226;2022-12-16T04:30:21;-2.40;99.90
23801;DHT22;12081;48.614;10.226;2022-12-16T04:33:08;-1.20;99.90
23801;DHT22;12081;48.614;10.226;2022-12-16T04:36:12;-1.10;99.90
23801;DHT22;12081;48.614;10.226;2022-12-16T04:39:15;-0.90;99.90
23801;DHT22;12081;48.614;10.226;2022-12-16T04:42:18;-0.60;99.90
23801;DHT22;12081;48.614;10.226;2022-12-16T04:45:21;-0.90;99.90
23801;DHT22;12081;48.614;10.226;2022-12-16T04:48:24;-0.80;99.90
23801;DHT22;12081;48.614;10.226;2022-12-16T04:51:27;-1.90;99.90
23801;DHT22;12081;48.614;10.226;2022-12-16T04:54:30;-2.40;99.90
23801;DHT22;12081;48.614;10.226;2022-12-16T04:57:33;-1.70;99.90
23801;DHT22;12081;48.614;10.226;2022-12-16T05:00:40;-1.30;99.90
23801;DHT22;12081;48.614;10.226;2022-12-16T05:03:45;-3.70;99.90
23801;DHT22;12081;48.614;10.226;2022-12-16T05:06:48;-1.30;99.90
23801;DHT22;12081;48.614;10.226;2022-12-16T05:09:51;-1.40;99.90
23801;DHT22;12081;48.614;10.226;2022-12-16T05:12:55;-1.40;99.90
23801;DHT22;12081;48.614;10.226;2022-12-16T05:16:34;-2.00;99.90
23801;DHT22;12081;48.614;10.226;2022-12-16T05:19:38;-2.40;99.90
23801;DHT22;12081;48.614;10.226;2022-12-16T05:22:41;-0.70;99.90
23801;DHT22;12081;48.614;10.226;2022-12-16T05:25:44;-0.90;99.90
23801;DHT22;12081;48.614;10.226;2022-12-16T05:28:47;-1.50;99.90
23801;DHT22;12081;48.614;10.226;2022-12-16T05:31:50;-1.00;99.90
23801;DHT22;12081;48.614;10.226;2022-12-16T05:34:53;-2.40;99.90
23801;DHT22;12081;48.614;10.226;2022-12-16T05:37:56;-2.00;99.90
23801;DHT22;12081;48.614;10.226;2022-12-16T05:40:59;-2.50;99.90
23801;DHT22;12081;48.614;10.226;2022-12-16T05:44:17;-3.80;99.90
23801;DHT22;12081;48.614;10.226;2022-12-16T05:47:20;-1.30;99.90
23801;DHT22;12081;48.614;10.226;2022-12-16T05:50:23;-0.90;99.90
23801;DHT22;12081;48.614;10.226;2022-12-16T05:53:26;-1.30;99.90
23801;DHT22;12081;48.614;10.226;2022-12-16T05:56:32;-1.00;99.90
23801;DHT22;12081;48.614;10.226;2022-12-16T05:59:36;-3.20;99.90
23801;DHT22;12081;48.614;10.226;2022-12-16T06:02:39;-1.60;99.90
23801;DHT22;12081;48.614;10.226;2022-12-16T06:05:42;-2.30;99.90
23801;DHT22;12081;48.614;10.226;2022-12-16T06:08:45;-2.10;99.90
23801;DHT22;12081;48.614;10.226;2022-12-16T06:11:49;-1.40;99.90
23801;DHT22;12081;48.614;10.226;2022-12-16T06:14:52;-1.60;99.90
23801;DHT22;12081;48.614;10.226;2022-12-16T06:17:55;-2.50;99.90
23801;DHT22;12081;48.614;10.226;2022-12-16T06:20:58;-1.10;99.90
23801;DHT22;12081;48.614;10.226;2022-12-16T06:24:01;-1.20;99.90
23801;DHT22;12081;48.614;10.226;2022-12-16T06:27:04;-2.40;99.90
23801;DHT22;12081;48.614;10.226;2022-12-16T06:30:13;-1.20;99.90
23801;DHT22;12081;48.614;10.226;2022-12-16T06:33:18;-1.70;99.90
23801;DHT22;12081;48.614;10.226;2022-12-16T06:36:21;-2.60;99.90
23801;DHT22;12081;48.614;10.226;2022-12-16T06:39:25;-1.60;99.90
23801;DHT22;12081;48.614;10.226;2022-12-16T06:42:28;-1.10;99.90
23801;DHT22;12081;48.614;10.226;2022-12-16T06:45:30;-1.40;99.90
23801;DHT22;12081;48.614;10.226;2022-12-16T06:48:33;-1.60;99.90
23801;DHT22;12081;48.614;10.226;2022-12-16T06:51:42;-1.70;99.90
23801;DHT22;12081;48.614;10.226;2022-12-16T06:54:45;-2.10;99.90
23801;DHT22;12081;48.614;10.226;2022-12-16T06:57:47;-1.40;99.90
23801;DHT22;12081;48.614;10.226;2022-12-16T07:00:50;-1.20;99.90
23801;DHT22;12081;48.614;10.226;2022-12-16T07:03:53;-1.20;99.90
23801;DHT22;12081;48.614;10.226;2022-12-16T07:06:39;-1.20;99.90
23801;DHT22;12081;48.614;10.226;2022-12-16T07:09:42;-2.50;99.90
23801;DHT22;12081;48.614;10.226;2022-12-16T07:12:45;-2.50;99.90
23801;DHT22;12081;48.614;10.226;2022-12-16T07:15:48;-2.50;99.90
23801;DHT22;12081;48.614;10.226;2022-12-16T07:18:51;-2.50;99.90
23801;DHT22;12081;48.614;10.226;2022-12-16T07:21:54;-2.50;99.90
23801;DHT22;12081;48.614;10.226;2022-12-16T07:24:57;-2.50;99.90
23801;DHT22;12081;48.614;10.226;2022-12-16T07:28:00;-2.50;99.90
23801;DHT22;12081;48.614;10.226;2022-12-16T07:31:03;-2.50;99.90
23801;DHT22;12081;48.614;10.226;2022-12-16T07:33:58;-2.50;99.90
23801;DHT22;12081;48.614;10.226;2022-12-16T07:37:09;-2.50;99.90
23801;DHT22;12081;48.614;10.226;2022-12-16T07:40:16;-0.50;99.90
23801;DHT22;12081;48.614;10.226;2022-12-16T07:43:21;-2.50;99.90
23801;DHT22;12081;48.614;10.226;2022-12-16T07:46:37;-2.50;99.90
23801;DHT22;12081;48.614;10.226;2022-12-16T07:49:40;-1.30;99.90
23801;DHT22;12081;48.614;10.226;2022-12-16T07:52:43;-0.20;99.90
23801;DHT22;12081;48.614;10.226;2022-12-16T07:55:47;-0.40;99.90
23801;DHT22;12081;48.614;10.226;2022-12-16T07:58:50;-0.90;99.90
23801;DHT22;12081;48.614;10.226;2022-12-16T08:01:53;-0.60;99.90
23801;DHT22;12081;48.614;10.226;2022-12-16T08:04:56;-0.80;99.90
23801;DHT22;12081;48.614;10.226;2022-12-16T08:07:59;-2.40;99.90
23801;DHT22;12081;48.614;10.226;2022-12-16T08:11:34;-3.60;99.90
23801;DHT22;12081;48.614;10.226;2022-12-16T08:14:57;-3.40;99.90
23801;DHT22;12081;48.614;10.226;2022-12-16T08:18:10;-2.40;99.90
23801;DHT22;12081;48.614;10.226;2022-12-16T08:25:08;-2.30;99.90
23801;DHT22;12081;48.614;10.226;2022-12-16T08:28:11;-2.10;99.90
23801;DHT22;12081;48.614;10.226;2022-12-16T08:44:19;-1.90;99.90
23801;DHT22;12081;48.614;10.226;2022-12-16T08:47:22;-0.10;99.90
23801;DHT22;12081;48.614;10.226;2022-12-16T08:50:26;-1.90;99.90
23801;DHT22;12081;48.614;10.226;2022-12-16T08:53:29;-1.80;99.90
23801;DHT22;12081;48.614;10.226;2022-12-16T08:56:31;-1.80;99.90
23801;DHT22;12081;48.614;10.226;2022-12-16T08:59:35;-1.80;99.90
23801;DHT22;12081;48.614;10.226;2022-12-16T09:02:38;-1.70;99.90
23801;DHT22;12081;48.614;10.226;2022-12-16T09:05:41;-1.60;99.90
23801;DHT22;12081;48.614;10.226;2022-12-16T09:08:44;-1.60;99.90
23801;DHT22;12081;48.614;10.226;2022-12-16T09:11:47;-1.50;99.90
23801;DHT22;12081;48.614;10.226;2022-12-16T09:14:50;-1.30;99.90
23801;DHT22;12081;48.614;10.226;2022-12-16T09:17:54;-1.20;99.90
23801;DHT22;12081;48.614;10.226;2022-12-16T09:20:57;-1.20;99.90
23801;DHT22;12081;48.614;10.226;2022-12-16T09:24:00;-1.10;99.90
23801;DHT22;12081;48.614;10.226;2022-12-16T09:27:20;-0.90;99.90
23801;DHT22;12081;48.614;10.226;2022-12-16T09:30:23;-0.90;99.90
23801;DHT22;12081;48.614;10.226;2022-12-16T09:33:26;-0.80;99.90
23801;DHT22;12081;48.614;10.226;2022-12-16T09:36:29;-0.70;99.90
23801;DHT22;12081;48.614;10.226;2022-12-16T09:39:31;-0.60;99.90
23801;DHT22;12081;48.614;10.226;2022-12-16T09:45:55;-0.60;99.90
23801;DHT22;12081;48.614;10.226;2022-12-16T09:52:17;-0.40;99.90
23801;DHT22;12081;48.614;10.226;2022-12-16T09:55:39;-0.40;99.90
23801;DHT22;12081;48.614;10.226;2022-12-16T09:58:47;-0.40;99.90
23801;DHT22;12081;48.614;10.226;2022-12-16T10:01:52;-0.40;99.90
23801;DHT22;12081;48.614;10.226;2022-12-16T10:05:22;-0.50;99.90
23801;DHT22;12081;48.614;10.226;2022-12-16T10:10:47;-0.50;99.90
23801;DHT22;12081;48.614;10.226;2022-12-16T10:14:11;-0.50;99.90
23801;DHT22;12081;48.614;10.226;2022-12-16T10:17:21;-0.40;99.90
23801;DHT22;12081;48.614;10.226;2022-12-16T10:20:46;-0.50;99.90
23801;DHT22;12081;48.614;10.226;2022-12-16T10:24:15;-0.40;99.90
23801;DHT22;12081;48.614;10.226;2022-12-16T10:27:56;-0.40;99.90
23801;DHT22;12081;48.614;10.226;2022-12-16T10:31:15;-0.30;99.90
23801;DHT22;12081;48.614;10.226;2022-12-16T10:34:24;-0.30;99.90
23801;DHT22;12081;48.614;10.226;2022-12-16T10:37:33;-0.20;99.90
23801;DHT22;12081;48.614;10.226;2022-12-16T10:40:38;0.00;99.90
23801;DHT22;12081;48.614;10.226;2022-12-16T10:43:44;0.30;99.90
23801;DHT22;12081;48.614;10.226;2022-12-16T10:46:48;0.60;99.90
23801;DHT22;12081;48.614;10.226;2022-12-16T10:49:53;0.70;99.90
23801;DHT22;12081;48.614;10.226;2022-12-16T10:52:59;0.80;99.90
23801;DHT22;12081;48.614;10.226;2022-12-16T10:59:20;0.90;99.90
23801;DHT22;12081;48.614;10.226;2022-12-16T11:02:25;0.90;99.90
23801;DHT22;12081;48.614;10.226;2022-12-16T11:05:32;0.90;99.90
23801;DHT22;12081;48.614;10.226;2022-12-16T11:08:35;0.80;99.90
23801;DHT22;12081;48.614;10.226;2022-12-16T11:11:38;0.70;99.90
23801;DHT22;12081;48.614;10.226;2022-12-16T11:14:51;0.70;99.90
23801;DHT22;12081;48.614;10.226;2022-12-16T11:18:05;0.60;99.90
23801;DHT22;12081;48.614;10.226;2022-12-16T11:21:17;1.90;99.90
23801;DHT22;12081;48.614;10.226;2022-12-16T11:24:20;0.40;99.90
23801;DHT22;12081;48.614;10.226;2022-12-16T11:27:25;0.40;99.90
23801;DHT22;12081;48.614;10.226;2022-12-16T11:30:28;0.40;99.90
23801;DHT22;12081;48.614;10.226;2022-12-16T11:33:31;0.40;99.90
23801;DHT22;12081;48.614;10.226;2022-12-16T11:36:35;0.50;99.90
23801;DHT22;12081;48.614;10.226;2022-12-16T11:39:40;0.60;99.90
23801;DHT22;12081;48.614;10.226;2022-12-16T11:42:43;0.70;99.90
23801;DHT22;12081;48.614;10.226;2022-12-16T11:45:47;1.00;99.90
23801;DHT22;12081;48.614;10.226;2022-12-16T11:49:06;1.20;99.90
23801;DHT22;12081;48.614;10.226;2022-12-16T11:52:13;1.40;99.90
23801;DHT22;12081;48.614;10.226;2022-12-16T11:55:24;1.30;99.90
23801;DHT22;12081;48.614;10.226;2022-12-16T12:01:58;1.30;99.90
23801;DHT22;12081;48.614;10.226;2022-12-16T12:05:02;1.10;99.90
23801;DHT22;12081;48.614;10.226;2022-12-16T12:08:16;1.00;99.90
23801;DHT22;12081;48.614;10.226;2022-12-16T12:11:35;0.90;99.90
23801;DHT22;12081;48.614;10.226;2022-12-16T12:14:50;0.80;99.90
23801;DHT22;12081;48.614;10.226;2022-12-16T12:18:23;0.60;99.90
23801;DHT22;12081;48.614;10.226;2022-12-16T12:22:02;0.60;99.90
23801;DHT22;12081;48.614;10.226;2022-12-16T12:25:12;0.70;99.90
23801;DHT22;12081;48.614;10.226;2022-12-16T12:31:58;0.70;99.90
23801;DHT22;12081;48.614;10.226;2022-12-16T12:42:10;0.60;99.90
23801;DHT22;12081;48.614;10.226;2022-12-16T12:45:42;0.60;99.90
23801;DHT22;12081;48.614;10.226;2022-12-16T12:52:35;0.70;99.90
23801;DHT22;12081;48.614;10.226;2022-12-16T12:56:10;0.70;99.90
23801;DHT22;12081;48.614;10.226;2022-12-16T13:03:13;0.30;99.90
23801;DHT22;12081;48.614;10.226;2022-12-16T13:06:19;0.20;99.90
23801;DHT22;12081;48.614;10.226;2022-12-16T13:09:30;0.10;99.90
23801;DHT22;12081;48.614;10.226;2022-12-16T13:12:33;0.10;99.90
23801;DHT22;12081;48.614;10.226;2022-12-16T13:15:39;-0.10;99.90
23801;DHT22;12081;48.614;10.226;2022-12-16T13:18:42;-0.10;99.90
23801;DHT22;12081;48.614;10.226;2022-12-16T13:21:45;-0.30;99.90
23801;DHT22;12081;48.614;10.226;2022-12-16T13:24:51;-0.30;99.90
23801;DHT22;12081;48.614;10.226;2022-12-16T13:27:55;-0.40;99.90
23801;DHT22;12081;48.614;10.226;2022-12-16T13:31:02;-0.40;99.90
23801;DHT22;12081;48.614;10.226;2022-12-16T13:34:28;-0.50;99.90
23801;DHT22;12081;48.614;10.226;2022-12-16T13:37:37;-0.40;99.90
23801;DHT22;12081;48.614;10.226;2022-12-16T13:40:55;-0.50;99.90
23801;DHT22;12081;48.614;10.226;2022-12-16T13:43:59;-0.50;99.90
23801;DHT22;12081;48.614;10.226;2022-12-16T13:47:02;-0.50;99.90
23801;DHT22;12081;48.614;10.226;2022-12-16T13:50:36;-0.20;99.90
23801;DHT22;12081;48.614;10.226;2022-12-16T13:53:43;-0.60;99.90
23801;DHT22;12081;48.614;10.226;2022-12-16T13:56:49;-0.60;99.90
23801;DHT22;12081;48.614;10.226;2022-12-16T13:59:53;-0.60;99.90
23801;DHT22;12081;48.614;10.226;2022-12-16T14:02:56;-0.70;99.90
23801;DHT22;12081;48.614;10.226;2022-12-16T14:06:03;-0.80;99.90
23801;DHT22;12081;48.614;10.226;2022-12-16T14:13:00;-0.80;99.90
23801;DHT22;12081;48.614;10.226;2022-12-16T14:23:20;-1.00;99.90
23801;DHT22;12081;48.614;10.226;2022-12-16T14:26:27;-1.00;99.90
23801;DHT22;12081;48.614;10.226;2022-12-16T14:29:31;-1.00;99.90
23801;DHT22;12081;48.614;10.226;2022-12-16T14:32:34;-1.20;99.90
23801;DHT22;12081;48.614;10.226;2022-12-16T14:35:48;-1.20;99.90
23801;DHT22;12081;48.614;10.226;2022-12-16T14:38:51;-1.20;99.90
23801;DHT22;12081;48.614;10.226;2022-12-16T14:41:54;-1.30;99.90
23801;DHT22;12081;48.614;10.226;2022-12-16T14:44:58;-1.30;99.90
23801;DHT22;12081;48.614;10.226;2022-12-16T14:48:01;-1.40;99.90
23801;DHT22;12081;48.614;10.226;2022-12-16T14:51:32;-1.50;99.90
23801;DHT22;12081;48.614;10.226;2022-12-16T14:54:38;-1.50;99.90
23801;DHT22;12081;48.614;10.226;2022-12-16T14:57:41;-1.60;99.90
23801;DHT22;12081;48.614;10.226;2022-12-16T15:00:45;-1.60;99.90
23801;DHT22;12081;48.614;10.226;2022-12-16T15:03:48;-1.60;99.90
23801;DHT22;12081;48.614;10.226;2022-12-16T15:06:49;-1.70;99.90
23801;DHT22;12081;48.614;10.226;2022-12-16T15:09:55;-0.80;99.90
23801;DHT22;12081;48.614;10.226;2022-12-16T15:12:59;-0.80;99.90
23801;DHT22;12081;48.614;10.226;2022-12-16T15:16:02;-0.50;99.90
23801;DHT22;12081;48.614;10.226;2022-12-16T15:19:09;-1.90;99.90
23801;DHT22;12081;48.614;10.226;2022-12-16T15:22:15;-2.10;99.90
23801;DHT22;12081;48.614;10.226;2022-12-16T15:25:20;-2.10;99.90
23801;DHT22;12081;48.614;10.226;2022-12-16T15:28:39;-2.20;99.90
23801;DHT22;12081;48.614;10.226;2022-12-16T15:31:43;-2.20;99.90
23801;DHT22;12081;48.614;10.226;2022-12-16T15:34:48;-2.30;99.90
23801;DHT22;12081;48.614;10.226;2022-12-16T15:37:51;-2.30;99.90
23801;DHT22;12081;48.614;10.226;2022-12-16T15:40:54;-2.40;99.90
23801;DHT22;12081;48.614;10.226;2022-12-16T15:43:57;-2.40;99.90
23801;DHT22;12081;48.614;10.226;2022-12-16T15:47:00;-2.40;99.90
23801;DHT22;12081;48.614;10.226;2022-12-16T15:50:04;-2.50;99.90
23801;DHT22;12081;48.614;10.226;2022-12-16T15:56:18;-2.50;99.90
23801;DHT22;12081;48.614;10.226;2022-12-16T15:59:34;-2.50;99.90
23801;DHT22;12081;48.614;10.226;2022-12-16T16:02:45;-2.40;99.90
23801;DHT22;12081;48.614;10.226;2022-12-16T16:05:48;-2.50;99.90
23801;DHT22;12081;48.614;10.226;2022-12-16T16:08:52;-2.50;99.90
23801;DHT22;12081;48.614;10.226;2022-12-16T16:11:55;-2.50;99.90
23801;DHT22;12081;48.614;10.226;2022-12-16T16:14:58;-2.50;99.90
23801;DHT22;12081;48.614;10.226;2022-12-16T16:18:04;-2.60;99.90
23801;DHT22;12081;48.614;10.226;2022-12-16T16:21:07;-2.70;99.90
23801;DHT22;12081;48.614;10.226;2022-12-16T16:24:12;-2.60;99.90
23801;DHT22;12081;48.614;10.226;2022-12-16T16:27:17;-1.70;99.90
23801;DHT22;12081;48.614;10.226;2022-12-16T16:30:20;-1.80;99.90
23801;DHT22;12081;48.614;10.226;2022-12-16T16:33:23;-1.70;99.90
23801;DHT22;12081;48.614;10.226;2022-12-16T16:36:29;-1.60;99.90
23801;DHT22;12081;48.614;10.226;2022-12-16T16:39:32;-1.70;99.90
23801;DHT22;12081;48.614;10.226;2022-12-16T16:42:35;-1.20;99.90
23801;DHT22;12081;48.614;10.226;2022-12-16T16:45:38;-1.20;99.90
23801;DHT22;12081;48.614;10.226;2022-12-16T16:48:24;-1.50;99.90
23801;DHT22;12081;48.614;10.226;2022-12-16T16:51:29;-2.70;99.90
23801;DHT22;12081;48.614;10.226;2022-12-16T16:54:32;-2.70;99.90
23801;DHT22;12081;48.614;10.226;2022-12-16T16:57:36;-2.70;99.90
23801;DHT22;12081;48.614;10.226;2022-12-16T17:00:39;-2.70;99.90
23801;DHT22;12081;48.614;10.226;2022-12-16T17:03:42;-2.70;99.90
23801;DHT22;12081;48.614;10.226;2022-12-16T17:06:45;-2.70;99.90
23801;DHT22;12081;48.614;10.226;2022-12-16T17:09:48;-2.70;99.90
23801;DHT22;12081;48.614;10.226;2022-12-16T17:12:51;-2.70;99.90
23801;DHT22;12081;48.614;10.226;2022-12-16T17:15:58;-2.70;99.90
23801;DHT22;12081;48.614;10.226;2022-12-16T17:19:01;-2.70;99.90
23801;DHT22;12081;48.614;10.226;2022-12-16T17:22:05;-2.70;99.90
23801;DHT22;12081;48.614;10.226;2022-12-16T17:25:08;-2.70;99.90
23801;DHT22;12081;48.614;10.226;2022-12-16T17:28:11;-2.70;99.90
23801;DHT22;12081;48.614;10.226;2022-12-16T17:31:14;-2.80;99.90
23801;DHT22;12081;48.614;10.226;2022-12-16T17:34:17;-2.70;99.90
23801;DHT22;12081;48.614;10.226;2022-12-16T17:37:20;-2.70;99.90
23801;DHT22;12081;48.614;10.226;2022-12-16T17:40:23;-2.70;99.90
23801;DHT22;12081;48.614;10.226;2022-12-16T17:43:27;-2.70;99.90
23801;DHT22;12081;48.614;10.226;2022-12-16T17:46:30;-2.70;99.90
23801;DHT22;12081;48.614;10.226;2022-12-16T17:49:33;-2.70;99.90
23801;DHT22;12081;48.614;10.226;2022-12-16T17:52:36;-2.70;99.90
23801;DHT22;12081;48.614;10.226;2022-12-16T17:55:39;-2.80;99.90
23801;DHT22;12081;48.614;10.226;2022-12-16T17:58:42;-2.90;99.90
23801;DHT22;12081;48.614;10.226;2022-12-16T18:01:45;-2.90;99.90
23801;DHT22;12081;48.614;10.226;2022-12-16T18:04:48;-2.90;99.90
23801;DHT22;12081;48.614;10.226;2022-12-16T18:07:50;-2.80;99.90
23801;DHT22;12081;48.614;10.226;2022-12-16T18:10:55;-2.90;99.90
23801;DHT22;12081;48.614;10.226;2022-12-16T18:13:58;-2.90;99.90
23801;DHT22;12081;48.614;10.226;2022-12-16T18:17:01;-2.90;99.90
23801;DHT22;12081;48.614;10.226;2022-12-16T18:20:04;-2.90;99.90
23801;DHT22;12081;48.614;10.226;2022-12-16T18:23:07;-2.90;99.90
23801;DHT22;12081;48.614;10.226;2022-12-16T18:26:10;-2.90;99.90
23801;DHT22;12081;48.614;10.226;2022-12-16T18:29:13;-2.90;99.90
23801;DHT22;12081;48.614;10.226;2022-12-16T18:32:16;-2.90;99.90
23801;DHT22;12081;48.614;10.226;2022-12-16T18:35:19;-2.90;99.90
23801;DHT22;12081;48.614;10.226;2022-12-16T18:38:22;-2.90;99.90
23801;DHT22;12081;48.614;10.226;2022-12-16T18:41:25;-2.90;99.90
23801;DHT22;12081;48.614;10.226;2022-12-16T18:44:28;-2.90;99.90
23801;DHT22;12081;48.614;10.226;2022-12-16T18:47:31;-2.90;99.90
23801;DHT22;12081;48.614;10.226;2022-12-16T18:50:34;-3.00;99.90
23801;DHT22;12081;48.614;10.226;2022-12-16T18:53:37;-3.00;99.90
23801;DHT22;12081;48.614;10.226;2022-12-16T18:56:40;-3.00;99.90
23801;DHT22;12081;48.614;10.226;2022-12-16T18:59:43;-3.00;99.90
23801;DHT22;12081;48.614;10.226;2022-12-16T19:02:46;-3.10;99.90
23801;DHT22;12081;48.614;10.226;2022-12-16T19:05:54;-3.10;99.90
23801;DHT22;12081;48.614;10.226;2022-12-16T19:08:57;-3.00;99.90
23801;DHT22;12081;48.614;10.226;2022-12-16T19:12:00;-3.10;99.90
23801;DHT22;12081;48.614;10.226;2022-12-16T19:15:04;-3.10;99.90
23801;DHT22;12081;48.614;10.226;2022-12-16T19:18:06;-3.20;99.90
23801;DHT22;12081;48.614;10.226;2022-12-16T19:21:09;-3.20;99.90
23801;DHT22;12081;48.614;10.226;2022-12-16T19:24:13;-3.20;99.90
23801;DHT22;12081;48.614;10.226;2022-12-16T19:27:16;-3.20;99.90
23801;DHT22;12081;48.614;10.226;2022-12-16T19:30:18;-3.20;99.90
23801;DHT22;12081;48.614;10.226;2022-12-16T19:33:22;-3.20;99.90
23801;DHT22;12081;48.614;10.226;2022-12-16T19:36:26;-3.20;99.90
23801;DHT22;12081;48.614;10.226;2022-12-16T19:39:28;-3.30;99.90
23801;DHT22;12081;48.614;10.226;2022-12-16T19:42:32;-3.30;99.90
23801;DHT22;12081;48.614;10.226;2022-12-16T19:45:35;-3.30;99.90
23801;DHT22;12081;48.614;10.226;2022-12-16T19:48:38;-3.30;99.90
23801;DHT22;12081;48.614;10.226;2022-12-16T19:51:40;-3.40;99.90
23801;DHT22;12081;48.614;10.226;2022-12-16T19:54:43;-3.40;99.90
23801;DHT22;12081;48.614;10.226;2022-12-16T19:58:00;-3.50;99.90
23801;DHT22;12081;48.614;10.226;2022-12-16T20:01:03;-3.50;99.90
23801;DHT22;12081;48.614;10.226;2022-12-16T20:04:06;-3.60;99.90
23801;DHT22;12081;48.614;10.226;2022-12-16T20:07:09;-3.60;99.90
23801;DHT22;12081;48.614;10.226;2022-12-16T20:10:12;-3.60;99.90
23801;DHT22;12081;48.614;10.226;2022-12-16T20:13:15;-3.70;99.90
23801;DHT22;12081;48.614;10.226;2022-12-16T20:16:19;-3.70;99.90
23801;DHT22;12081;48.614;10.226;2022-12-16T20:19:22;-3.70;99.90
23801;DHT22;12081;48.614;10.226;2022-12-16T20:22:25;-3.60;99.90
23801;DHT22;12081;48.614;10.226;2022-12-16T20:25:28;-3.70;99.90
23801;DHT22;12081;48.614;10.226;2022-12-16T20:28:31;-3.80;99.90
23801;DHT22;12081;48.614;10.226;2022-12-16T20:31:34;-3.70;99.90
23801;DHT22;12081;48.614;10.226;2022-12-16T20:34:37;-3.90;99.90